createdAt,value
2023-05-17T00:00:59.638Z,72.63
2023-05-17T00:03:44.953Z,72.57
2023-05-17T00:06:31.871Z,72.16
2023-05-17T00:09:17.340Z,72.36
2023-05-17T00:12:03.285Z,72.68
2023-05-17T00:14:48.614Z,72.60
2023-05-17T00:17:33.901Z,72.13
2023-05-17T00:20:19.425Z,71.91
2023-05-17T00:23:04.822Z,72.16
2023-05-17T00:25:50.127Z,71.61
2023-05-17T00:28:35.559Z,71.74
2023-05-17T00:31:21.008Z,71.64
2023-05-17T00:34:06.399Z,71.42
2023-05-17T00:36:51.634Z,71.27
2023-05-17T00:39:37.022Z,71.36
2023-05-17T00:42:22.904Z,70.90
2023-05-17T00:45:08.635Z,71.19
2023-05-17T00:47:54.263Z,71.33
2023-05-17T00:50:40.072Z,71.19
2023-05-17T00:53:26.277Z,71.22
2023-05-17T00:56:11.922Z,71.34
2023-05-17T00:58:57.589Z,71.71
2023-05-17T01:01:44.012Z,71.53
2023-05-17T01:04:31.362Z,71.75
2023-05-17T01:07:18.748Z,71.27
2023-05-17T01:10:06.934Z,71.55
2023-05-17T01:13:18.448Z,71.31
2023-05-17T01:16:18.746Z,71.61
2023-05-17T01:19:41.544Z,71.83
2023-05-17T01:22:33.220Z,72.06
2023-05-17T01:25:24.860Z,72.13
2023-05-17T01:28:12.088Z,71.55
2023-05-17T01:31:00.591Z,71.47
2023-05-17T01:33:46.708Z,71.48
2023-05-17T01:36:32.092Z,71.55
2023-05-17T01:39:17.593Z,71.59
2023-05-17T01:42:11.241Z,71.50
2023-05-17T01:45:02.635Z,71.53
2023-05-17T01:47:48.776Z,71.47
2023-05-17T01:50:36.221Z,71.45
2023-05-17T01:53:30.336Z,71.36
2023-05-17T01:56:32.890Z,71.34
2023-05-17T01:59:24.181Z,71.54
2023-05-17T02:02:10.030Z,71.66
2023-05-17T02:04:55.684Z,71.47
2023-05-17T02:07:41.633Z,71.56
2023-05-17T02:10:26.980Z,71.53
2023-05-17T02:13:13.009Z,71.05
2023-05-17T02:16:02.115Z,70.55
2023-05-17T02:18:47.851Z,70.57
2023-05-17T02:21:33.156Z,70.34
2023-05-17T02:24:18.798Z,70.62
2023-05-17T02:27:04.660Z,70.37
2023-05-17T02:29:50.562Z,70.37
2023-05-17T02:32:36.020Z,70.53
2023-05-17T02:35:22.093Z,70.48
2023-05-17T02:38:09.556Z,69.88
2023-05-17T02:40:54.769Z,69.67
2023-05-17T02:43:40.226Z,69.83
2023-05-17T02:46:26.288Z,69.93
2023-05-17T02:49:11.657Z,70.20
2023-05-17T02:51:57.199Z,70.11
2023-05-17T02:54:45.442Z,70.16
2023-05-17T02:57:30.950Z,69.92
2023-05-17T03:00:16.865Z,70.15
2023-05-17T03:03:02.848Z,70.08
2023-05-17T03:05:49.172Z,70.29
2023-05-17T03:08:34.843Z,70.36
2023-05-17T03:11:21.478Z,70.58
2023-05-17T03:14:07.053Z,70.68
2023-05-17T03:16:52.365Z,70.90
2023-05-17T03:19:38.795Z,71.39
2023-05-17T03:22:24.260Z,71.37
2023-05-17T03:25:10.945Z,71.35
2023-05-17T03:27:56.544Z,71.12
2023-05-17T03:30:42.296Z,71.49
2023-05-17T03:33:28.475Z,71.85
2023-05-17T03:36:14.325Z,71.82
2023-05-17T03:38:59.704Z,71.81
2023-05-17T03:41:45.701Z,71.50
2023-05-17T03:44:32.219Z,71.32
2023-05-17T03:47:17.583Z,71.33
2023-05-17T03:50:03.765Z,71.02
2023-05-17T03:52:49.428Z,70.80
2023-05-17T03:55:34.856Z,70.43
2023-05-17T03:58:20.298Z,70.09
2023-05-17T04:01:05.886Z,70.16
2023-05-17T04:03:52.590Z,69.91
2023-05-17T04:06:39.998Z,69.91
2023-05-17T04:09:25.867Z,69.88
2023-05-17T04:12:12.141Z,69.85
2023-05-17T04:14:58.423Z,70.09
2023-05-17T04:17:44.543Z,70.22
2023-05-17T04:20:31.143Z,70.62
2023-05-17T04:23:16.812Z,70.58
2023-05-17T04:26:04.264Z,70.69
2023-05-17T04:28:52.013Z,70.89
2023-05-17T04:31:37.666Z,71.14
2023-05-17T04:34:25.035Z,71.26
2023-05-17T04:37:13.078Z,71.21
2023-05-17T04:39:59.278Z,71.48
2023-05-17T04:42:47.736Z,71.19
2023-05-17T04:45:33.974Z,71.14
2023-05-17T04:48:20.839Z,71.37
2023-05-17T04:51:06.491Z,70.87
2023-05-17T04:53:51.944Z,70.73
2023-05-17T04:56:37.536Z,70.53
2023-05-17T04:59:27.710Z,70.40
2023-05-17T05:02:14.283Z,70.06
2023-05-17T05:05:00.726Z,69.86
2023-05-17T05:07:46.471Z,70.00
2023-05-17T05:10:32.497Z,69.77
2023-05-17T05:13:18.049Z,69.13
2023-05-17T05:16:04.185Z,68.75
2023-05-17T05:18:50.129Z,68.46
2023-05-17T05:21:35.897Z,67.21
2023-05-17T05:24:21.691Z,67.51
2023-05-17T05:27:07.337Z,67.18
2023-05-17T05:29:55.530Z,66.79
2023-05-17T05:32:44.152Z,66.97
2023-05-17T05:35:30.986Z,67.24
2023-05-17T05:38:18.260Z,67.68
2023-05-17T05:41:04.165Z,67.73
2023-05-17T05:43:49.435Z,67.71
2023-05-17T05:46:34.875Z,68.19
2023-05-17T05:49:22.710Z,68.25
2023-05-17T05:52:08.234Z,67.92
2023-05-17T05:54:55.643Z,68.30
2023-05-17T05:57:41.414Z,68.61
2023-05-17T06:00:27.233Z,68.33
2023-05-17T06:03:12.872Z,68.41
2023-05-17T06:05:58.537Z,68.53
2023-05-17T06:08:47.196Z,68.91
2023-05-17T06:11:33.168Z,68.56
2023-05-17T06:14:18.678Z,68.33
2023-05-17T06:17:04.621Z,68.54
2023-05-17T06:19:50.100Z,68.81
2023-05-17T06:22:35.647Z,69.11
2023-05-17T06:25:21.101Z,68.81
2023-05-17T06:28:09.258Z,69.35
2023-05-17T06:30:54.749Z,69.06
2023-05-17T06:33:40.231Z,69.14
2023-05-17T06:36:25.899Z,69.43
2023-05-17T06:39:11.638Z,69.53
2023-05-17T06:41:56.873Z,69.23
2023-05-17T06:44:42.368Z,69.45
2023-05-17T06:47:27.895Z,69.92
2023-05-17T06:50:13.395Z,69.72
2023-05-17T06:52:58.869Z,69.26
2023-05-17T06:55:44.486Z,70.45
2023-05-17T06:58:30.207Z,69.84
2023-05-17T07:01:15.809Z,70.32
2023-05-17T07:04:01.785Z,70.32
2023-05-17T07:06:48.007Z,70.74
2023-05-17T07:09:33.613Z,69.34
2023-05-17T07:12:19.313Z,67.93
2023-05-17T07:15:05.202Z,68.51
2023-05-17T07:17:51.024Z,66.23
2023-05-17T07:20:36.311Z,63.51
2023-05-17T07:23:21.541Z,64.77
2023-05-17T07:26:06.985Z,62.87
2023-05-17T07:28:52.862Z,62.15
2023-05-17T07:31:38.534Z,62.57
2023-05-17T07:34:24.009Z,61.20
2023-05-17T07:37:09.389Z,61.81
2023-05-17T07:39:54.952Z,61.98
2023-05-17T07:42:40.238Z,61.81
2023-05-17T07:45:26.038Z,62.21
2023-05-17T07:48:11.598Z,60.72
2023-05-17T07:50:57.594Z,60.89
2023-05-17T07:53:43.480Z,61.18
2023-05-17T07:56:29.640Z,61.00
2023-05-17T07:59:14.838Z,61.96
2023-05-17T08:02:00.542Z,61.58
2023-05-17T08:04:46.148Z,60.84
2023-05-17T08:07:31.869Z,61.68
2023-05-17T08:10:17.105Z,61.79
2023-05-17T08:13:03.556Z,61.84
2023-05-17T08:15:51.567Z,60.70
2023-05-17T08:18:37.642Z,61.43
2023-05-17T08:21:23.125Z,61.95
2023-05-17T08:24:11.746Z,61.53
2023-05-17T08:26:57.236Z,61.25
2023-05-17T08:29:42.974Z,61.28
2023-05-17T08:32:29.309Z,61.43
2023-05-17T08:35:14.664Z,61.66
2023-05-17T08:37:59.990Z,61.50
2023-05-17T08:40:53.325Z,62.50
2023-05-17T08:43:39.845Z,61.24
2023-05-17T08:46:26.830Z,61.40
2023-05-17T08:49:15.951Z,59.40
2023-05-17T08:52:09.785Z,59.60
2023-05-17T08:54:55.791Z,60.78
2023-05-17T08:57:42.462Z,61.17
2023-05-17T09:00:28.849Z,60.93
2023-05-17T09:03:18.341Z,60.86
2023-05-17T09:06:04.872Z,60.39
2023-05-17T09:08:58.535Z,59.68
2023-05-17T09:11:44.582Z,59.27
2023-05-17T09:14:37.269Z,59.33
2023-05-17T09:17:23.007Z,59.48
2023-05-17T09:20:10.256Z,59.53
2023-05-17T09:22:55.739Z,59.50
2023-05-17T09:25:49.042Z,58.79
2023-05-17T09:28:42.328Z,59.02
2023-05-17T09:31:27.789Z,57.71
2023-05-17T09:34:18.550Z,58.30
2023-05-17T09:37:05.418Z,58.69
2023-05-17T09:39:57.576Z,59.19
2023-05-17T09:42:48.089Z,58.90
2023-05-17T09:45:34.067Z,59.02
2023-05-17T09:48:19.568Z,58.01
2023-05-17T09:51:06.201Z,57.97
2023-05-17T09:53:54.404Z,56.59
2023-05-17T09:56:41.156Z,56.65
2023-05-17T09:59:29.847Z,54.57
2023-05-17T10:02:22.550Z,54.45
2023-05-17T10:05:12.442Z,55.39
2023-05-17T10:07:57.789Z,53.31
2023-05-17T10:10:44.053Z,53.75
2023-05-17T10:13:36.053Z,53.52
2023-05-17T10:16:23.478Z,54.28
2023-05-17T10:19:11.542Z,53.67
2023-05-17T10:22:04.993Z,52.25
2023-05-17T10:25:04.488Z,51.67
2023-05-17T10:27:52.092Z,53.33
2023-05-17T10:30:38.729Z,52.47
2023-05-17T10:33:27.064Z,52.86
2023-05-17T10:36:17.321Z,52.49
2023-05-17T10:39:02.982Z,51.54
2023-05-17T10:41:53.080Z,51.60
2023-05-17T10:44:38.911Z,51.31
2023-05-17T10:47:32.723Z,50.97
2023-05-17T10:50:23.653Z,51.87
2023-05-17T10:53:12.877Z,52.06
2023-05-17T10:55:58.899Z,51.07
2023-05-17T10:58:44.626Z,51.09
2023-05-17T11:02:09.505Z,51.85
2023-05-17T11:04:56.627Z,51.17
2023-05-17T11:07:42.277Z,51.94
2023-05-17T11:10:28.666Z,52.79
2023-05-17T11:13:27.458Z,51.59
2023-05-17T11:16:18.937Z,52.18
2023-05-17T11:19:12.030Z,51.31
2023-05-17T11:21:57.612Z,50.94
2023-05-17T11:24:45.642Z,52.28
2023-05-17T11:27:36.834Z,51.30
2023-05-17T11:30:24.522Z,52.22
2023-05-17T11:33:21.284Z,51.97
2023-05-17T11:36:24.408Z,50.87
2023-05-17T11:39:14.892Z,51.92
2023-05-17T11:42:00.218Z,50.75
2023-05-17T11:44:45.995Z,51.08
2023-05-17T11:47:32.930Z,50.71
2023-05-17T11:50:18.324Z,50.80
2023-05-17T11:53:09.431Z,51.31
2023-05-17T11:55:57.588Z,50.90
2023-05-17T11:58:43.935Z,51.01
2023-05-17T12:01:41.921Z,50.63
2023-05-17T12:04:27.897Z,49.53
2023-05-17T12:07:15.858Z,49.41
2023-05-17T12:10:01.872Z,49.50
2023-05-17T12:12:47.813Z,49.69
2023-05-17T12:15:33.646Z,49.88
2023-05-17T12:18:20.861Z,49.95
2023-05-17T12:21:07.665Z,50.96
2023-05-17T12:23:53.577Z,51.11
2023-05-17T12:26:46.871Z,50.01
2023-05-17T12:29:33.271Z,49.06
2023-05-17T12:32:19.178Z,48.96
2023-05-17T12:35:05.396Z,49.76
2023-05-17T12:37:50.884Z,49.32
2023-05-17T12:40:36.337Z,49.30
2023-05-17T12:43:24.623Z,49.74
2023-05-17T12:46:13.897Z,50.72
2023-05-17T12:49:07.651Z,50.89
2023-05-17T12:51:52.942Z,51.43
2023-05-17T12:54:39.695Z,51.45
2023-05-17T12:57:25.244Z,51.94
2023-05-17T13:00:11.849Z,52.23
2023-05-17T13:02:59.175Z,52.31
2023-05-17T13:05:46.567Z,52.64
2023-05-17T13:08:32.688Z,51.01
2023-05-17T13:11:18.037Z,52.57
2023-05-17T13:14:03.265Z,51.93
2023-05-17T13:16:48.823Z,48.46
2023-05-17T13:19:36.114Z,46.59
2023-05-17T13:22:22.024Z,45.42
2023-05-17T13:25:07.519Z,45.32
2023-05-17T13:27:55.442Z,45.78
2023-05-17T13:30:40.720Z,44.55
2023-05-17T13:33:26.703Z,42.86
2023-05-17T13:36:13.092Z,42.48
2023-05-17T13:38:59.847Z,42.82
2023-05-17T13:41:45.669Z,42.77
2023-05-17T13:44:31.066Z,42.82
2023-05-17T13:47:16.654Z,43.09
2023-05-17T13:50:02.053Z,43.72
2023-05-17T13:52:47.544Z,43.18
2023-05-17T13:55:32.961Z,42.25
2023-05-17T13:58:18.366Z,42.16
2023-05-17T14:01:04.543Z,42.78
2023-05-17T14:03:50.163Z,42.90
2023-05-17T14:06:35.796Z,43.13
2023-05-17T14:09:21.656Z,42.13
2023-05-17T14:12:07.520Z,42.15
2023-05-17T14:14:53.138Z,43.27
2023-05-17T14:17:38.949Z,43.31
2023-05-17T14:20:24.663Z,43.78
2023-05-17T14:23:10.558Z,43.61
2023-05-17T14:25:57.896Z,42.87
2023-05-17T14:28:43.810Z,43.27
2023-05-17T14:31:30.212Z,43.18
2023-05-17T14:34:16.087Z,42.80
2023-05-17T14:37:01.697Z,43.43
2023-05-17T14:39:58.702Z,39.99
2023-05-17T14:42:51.450Z,39.37
2023-05-17T14:45:37.125Z,38.34
2023-05-17T14:48:22.957Z,38.37
2023-05-17T14:51:08.588Z,38.41
2023-05-17T14:53:54.314Z,38.09
2023-05-17T14:56:39.656Z,38.69
2023-05-17T14:59:25.784Z,39.12
2023-05-17T15:02:11.681Z,39.19
2023-05-17T15:04:58.474Z,39.43
2023-05-17T15:07:44.312Z,39.25
2023-05-17T15:10:29.990Z,39.27
2023-05-17T15:13:15.685Z,38.89
2023-05-17T15:16:02.623Z,37.96
2023-05-17T15:18:48.649Z,38.94
2023-05-17T15:21:35.650Z,37.97
2023-05-17T15:24:21.206Z,38.67
2023-05-17T15:27:08.092Z,38.73
2023-05-17T15:29:54.920Z,38.77
2023-05-17T15:32:42.001Z,38.99
2023-05-17T15:35:28.959Z,38.68
2023-05-17T15:38:14.672Z,39.20
2023-05-17T15:41:05.550Z,39.31
2023-05-17T15:43:51.001Z,39.31
2023-05-17T15:46:36.569Z,40.28
2023-05-17T15:49:21.889Z,40.32
2023-05-17T15:52:07.477Z,39.60
2023-05-17T15:54:54.126Z,40.35
2023-05-17T15:57:39.777Z,40.54
2023-05-17T16:00:25.579Z,40.99
2023-05-17T16:03:11.314Z,40.89
2023-05-17T16:05:56.975Z,41.00
2023-05-17T16:08:42.629Z,41.16
2023-05-17T16:11:28.138Z,41.57
2023-05-17T16:14:13.504Z,41.78
2023-05-17T16:16:58.779Z,42.12
2023-05-17T16:19:44.442Z,41.85
2023-05-17T16:22:29.899Z,42.34
2023-05-17T16:25:18.886Z,42.77
2023-05-17T16:28:04.146Z,43.54
2023-05-17T16:30:50.763Z,44.36
2023-05-17T16:33:43.486Z,44.37
2023-05-17T16:36:28.785Z,44.65
2023-05-17T16:39:14.408Z,44.77
2023-05-17T16:42:00.035Z,44.79
2023-05-17T16:44:45.301Z,44.97
2023-05-17T16:47:30.860Z,45.08
2023-05-17T16:50:16.893Z,45.02
2023-05-17T16:53:02.478Z,44.90
2023-05-17T16:55:48.318Z,45.24
2023-05-17T16:58:34.318Z,45.74
2023-05-17T17:01:19.802Z,45.53
2023-05-17T17:04:06.291Z,45.61
2023-05-17T17:06:54.711Z,45.50
2023-05-17T17:09:40.511Z,45.87
2023-05-17T17:12:26.361Z,46.66
2023-05-17T17:15:11.913Z,46.89
2023-05-17T17:17:57.283Z,47.47
2023-05-17T17:20:42.546Z,47.82
2023-05-17T17:23:27.934Z,48.03
2023-05-17T17:26:13.536Z,47.78
2023-05-17T17:29:08.207Z,47.67
2023-05-17T17:31:56.828Z,46.88
2023-05-17T17:34:42.322Z,46.47
2023-05-17T17:37:27.722Z,46.73
2023-05-17T17:40:13.731Z,46.92
2023-05-17T17:42:59.166Z,47.43
2023-05-17T17:45:46.306Z,47.81
2023-05-17T17:48:31.959Z,48.09
2023-05-17T17:51:17.423Z,48.41
2023-05-17T17:54:05.534Z,48.38
2023-05-17T17:56:50.953Z,48.67
2023-05-17T17:59:36.555Z,48.48
2023-05-17T18:02:21.978Z,48.83
2023-05-17T18:05:08.357Z,49.04
2023-05-17T18:07:53.783Z,48.96
2023-05-17T18:10:38.893Z,49.42
2023-05-17T18:13:24.427Z,49.58
2023-05-17T18:16:09.738Z,49.68
2023-05-17T18:18:55.421Z,49.65
2023-05-17T18:21:41.760Z,50.03
2023-05-17T18:24:27.699Z,50.76
2023-05-17T18:27:14.336Z,51.34
2023-05-17T18:29:59.769Z,51.53
2023-05-17T18:32:46.104Z,51.75
2023-05-17T18:35:31.569Z,52.38
2023-05-17T18:38:17.558Z,53.04
2023-05-17T18:41:03.231Z,53.31
2023-05-17T18:43:48.650Z,53.75
2023-05-17T18:46:34.198Z,53.53
2023-05-17T18:49:21.348Z,54.00
2023-05-17T18:52:07.353Z,54.10
2023-05-17T18:54:53.330Z,54.76
2023-05-17T18:57:40.403Z,54.86
2023-05-17T19:00:26.888Z,53.76
2023-05-17T19:03:13.520Z,54.51
2023-05-17T19:05:58.876Z,54.98
2023-05-17T19:08:44.122Z,55.25
2023-05-17T19:11:30.283Z,55.76
2023-05-17T19:14:15.788Z,56.28
2023-05-17T19:17:01.256Z,56.40
2023-05-17T19:19:46.731Z,56.88
2023-05-17T19:22:32.971Z,58.51
2023-05-17T19:25:20.310Z,59.43
2023-05-17T19:28:06.974Z,60.10
2023-05-17T19:30:53.997Z,60.11
2023-05-17T19:33:39.387Z,60.60
2023-05-17T19:36:26.147Z,60.36
2023-05-17T19:39:12.496Z,60.25
2023-05-17T19:41:58.033Z,60.17
2023-05-17T19:44:44.058Z,60.09
2023-05-17T19:47:29.570Z,60.32
2023-05-17T19:50:16.822Z,61.06
2023-05-17T19:53:02.279Z,62.13
2023-05-17T19:55:47.994Z,63.24
2023-05-17T19:58:35.255Z,63.33
2023-05-17T20:01:21.717Z,63.22
2023-05-17T20:04:07.205Z,63.50
2023-05-17T20:06:52.981Z,63.98
2023-05-17T20:09:38.925Z,63.89
2023-05-17T20:12:25.758Z,64.83
2023-05-17T20:15:11.762Z,65.70
2023-05-17T20:17:58.162Z,66.37
2023-05-17T20:20:44.453Z,67.53
2023-05-17T20:23:30.149Z,68.38
2023-05-17T20:26:17.153Z,68.69
2023-05-17T20:29:07.199Z,68.73
2023-05-17T20:31:52.884Z,68.98
2023-05-17T20:34:38.211Z,69.33
2023-05-17T20:37:23.605Z,68.98
2023-05-17T20:40:10.344Z,68.64
2023-05-17T20:42:56.546Z,68.42
2023-05-17T20:45:42.638Z,68.78
2023-05-17T20:48:29.132Z,69.05
2023-05-17T20:51:16.316Z,69.33
2023-05-17T20:54:03.870Z,69.33
2023-05-17T20:56:50.422Z,69.39
2023-05-17T20:59:36.997Z,69.04
2023-05-17T21:02:25.589Z,68.96
2023-05-17T21:05:11.475Z,68.85
2023-05-17T21:07:59.743Z,68.91
2023-05-17T21:10:46.973Z,69.15
2023-05-17T21:13:32.812Z,69.33
2023-05-17T21:16:18.552Z,69.23
2023-05-17T21:19:04.405Z,69.31
2023-05-17T21:21:49.684Z,69.37
2023-05-17T21:24:35.091Z,68.84
2023-05-17T21:27:20.349Z,69.35
2023-05-17T21:30:06.461Z,69.54
2023-05-17T21:32:52.107Z,69.68
2023-05-17T21:35:37.308Z,69.68
2023-05-17T21:38:25.677Z,70.25
2023-05-17T21:41:11.365Z,70.83
2023-05-17T21:43:57.129Z,70.96
2023-05-17T21:46:43.131Z,71.15
2023-05-17T21:49:28.546Z,71.26
2023-05-17T21:52:14.432Z,72.17
2023-05-17T21:55:00.398Z,72.24
2023-05-17T21:57:47.087Z,72.19
2023-05-17T22:00:32.737Z,72.22
2023-05-17T22:03:18.116Z,72.36
2023-05-17T22:06:03.726Z,72.31
2023-05-17T22:08:49.263Z,72.50
2023-05-17T22:11:38.237Z,72.56
2023-05-17T22:14:25.679Z,72.85
2023-05-17T22:17:11.075Z,73.50
2023-05-17T22:20:03.173Z,73.48
2023-05-17T22:22:48.424Z,73.31
2023-05-17T22:25:33.928Z,74.14
2023-05-17T22:28:19.159Z,73.76
2023-05-17T22:31:07.590Z,73.67
2023-05-17T22:33:53.935Z,73.96
2023-05-17T22:36:42.188Z,74.21
2023-05-17T22:39:27.472Z,74.34
2023-05-17T22:42:12.748Z,74.66
2023-05-17T22:44:58.056Z,74.34
2023-05-17T22:47:43.649Z,74.66
2023-05-17T22:50:30.634Z,75.10
2023-05-17T22:53:18.424Z,76.43
2023-05-17T22:56:03.613Z,76.08
2023-05-17T22:58:48.949Z,77.04
2023-05-17T23:01:34.157Z,77.99
2023-05-17T23:04:19.474Z,78.22
2023-05-17T23:07:04.907Z,78.53
2023-05-17T23:09:50.659Z,79.68
2023-05-17T23:12:37.211Z,81.05
2023-05-17T23:15:22.405Z,82.21
2023-05-17T23:18:09.097Z,82.17
2023-05-17T23:20:54.451Z,83.09
2023-05-17T23:23:40.598Z,82.70
2023-05-17T23:26:28.385Z,83.10
2023-05-17T23:29:13.660Z,82.35
2023-05-17T23:31:59.107Z,82.58
2023-05-17T23:34:45.484Z,82.54
2023-05-17T23:37:32.254Z,82.32
2023-05-17T23:40:17.663Z,82.10
2023-05-17T23:43:05.894Z,82.15
2023-05-17T23:45:51.993Z,83.08
2023-05-17T23:48:37.490Z,82.62
2023-05-17T23:51:23.024Z,82.39
2023-05-17T23:54:08.419Z,82.91
2023-05-17T23:56:53.868Z,82.98
2023-05-17T23:59:39.358Z,83.35
